CheckWX is a tool to help pilots better visualize weather data.  It is not intended as a substitute for an official pre-flight weather briefing.

01:54:36 UTC

KOLM TAF
Olympia Regional Airport
Olympia, Washington, USA
KOLM 182338Z 1900/1924 04010KT P6SM SKC FM190200 05005KT P6SM SKC FM191200 04003KT P6SM SKC FM192100 05012KT P6SM SKC

Mar-19@
00:00 UTC

Mar-19 @ 00:00 UTC

Mar-19@
02:00 UTC

Mar-19 @ 02:00 UTC

KOLM 182338Z 1900/1924 04010KT P6SM SKC
Wind
  • 040° at 10 KTS
Cloud Levels
  • Clear skies

Mar-19@
02:00 UTC

Mar-19 @ 02:00 UTC

Mar-19@
12:00 UTC

Mar-19 @ 12:00 UTC

FM190200 05005KT P6SM SKC

From

From Standard forecast or significant change

Wind
  • 050° at 5 KTS
Cloud Levels
  • Clear skies

Mar-19@
12:00 UTC

Mar-19 @ 12:00 UTC

Mar-19@
21:00 UTC

Mar-19 @ 21:00 UTC

FM191200 04003KT P6SM SKC

From

From Standard forecast or significant change

Wind
  • 040° at 3 KTS
Cloud Levels
  • Clear skies

Mar-19@
21:00 UTC

Mar-19 @ 21:00 UTC

Mar-20@
00:00 UTC

Mar-20 @ 00:00 UTC

FM192100 05012KT P6SM SKC

From

From Standard forecast or significant change

Wind
  • 050° at 12 KTS
Cloud Levels
  • Clear skies